sensor_id;sensor_type;location;lat;lon;timestamp;temperature;humidity
19307;DHT22;9788;48.194;16.318;2023-12-07T00:01:29;2.80;99.90
19307;DHT22;9788;48.194;16.318;2023-12-07T00:03:58;2.80;99.90
19307;DHT22;9788;48.194;16.318;2023-12-07T00:06:26;2.80;99.90
19307;DHT22;9788;48.194;16.318;2023-12-07T00:08:54;2.70;99.90
19307;DHT22;9788;48.194;16.318;2023-12-07T00:11:22;2.80;99.90
19307;DHT22;9788;48.194;16.318;2023-12-07T00:13:50;2.70;99.90
19307;DHT22;9788;48.194;16.318;2023-12-07T00:16:18;2.70;99.90
19307;DHT22;9788;48.194;16.318;2023-12-07T00:18:48;2.70;99.90
19307;DHT22;9788;48.194;16.318;2023-12-07T00:21:16;2.70;99.90
19307;DHT22;9788;48.194;16.318;2023-12-07T00:23:44;2.70;99.90
19307;DHT22;9788;48.194;16.318;2023-12-07T00:26:13;2.70;99.90
19307;DHT22;9788;48.194;16.318;2023-12-07T00:28:41;2.70;99.90
19307;DHT22;9788;48.194;16.318;2023-12-07T00:31:09;2.70;99.90
19307;DHT22;9788;48.194;16.318;2023-12-07T00:33:38;2.70;99.90
19307;DHT22;9788;48.194;16.318;2023-12-07T00:36:09;2.70;99.90
19307;DHT22;9788;48.194;16.318;2023-12-07T00:38:37;2.60;99.90
19307;DHT22;9788;48.194;16.318;2023-12-07T00:41:08;2.60;99.90
19307;DHT22;9788;48.194;16.318;2023-12-07T00:43:36;2.70;99.90
19307;DHT22;9788;48.194;16.318;2023-12-07T00:46:06;2.60;99.90
19307;DHT22;9788;48.194;16.318;2023-12-07T00:48:35;2.70;99.90
19307;DHT22;9788;48.194;16.318;2023-12-07T00:51:03;2.70;99.90
19307;DHT22;9788;48.194;16.318;2023-12-07T00:53:34;2.60;99.90
19307;DHT22;9788;48.194;16.318;2023-12-07T00:56:03;2.60;99.90
19307;DHT22;9788;48.194;16.318;2023-12-07T00:58:31;2.70;99.90
19307;DHT22;9788;48.194;16.318;2023-12-07T01:01:00;2.60;99.90
19307;DHT22;9788;48.194;16.318;2023-12-07T01:03:28;2.70;99.90
19307;DHT22;9788;48.194;16.318;2023-12-07T01:05:56;2.60;99.90
19307;DHT22;9788;48.194;16.318;2023-12-07T01:08:25;2.60;99.90
19307;DHT22;9788;48.194;16.318;2023-12-07T01:10:54;2.60;99.90
19307;DHT22;9788;48.194;16.318;2023-12-07T01:13:22;2.60;99.90
19307;DHT22;9788;48.194;16.318;2023-12-07T01:15:50;2.60;99.90
19307;DHT22;9788;48.194;16.318;2023-12-07T01:18:19;2.60;99.90
19307;DHT22;9788;48.194;16.318;2023-12-07T01:20:49;2.60;99.90
19307;DHT22;9788;48.194;16.318;2023-12-07T01:23:17;2.60;99.90
19307;DHT22;9788;48.194;16.318;2023-12-07T01:25:45;2.60;99.90
19307;DHT22;9788;48.194;16.318;2023-12-07T01:28:15;2.50;99.90
19307;DHT22;9788;48.194;16.318;2023-12-07T01:30:43;2.50;99.90
19307;DHT22;9788;48.194;16.318;2023-12-07T01:33:12;2.50;99.90
19307;DHT22;9788;48.194;16.318;2023-12-07T01:35:40;2.50;99.90
19307;DHT22;9788;48.194;16.318;2023-12-07T01:38:09;2.40;99.90
19307;DHT22;9788;48.194;16.318;2023-12-07T01:40:37;2.40;99.90
19307;DHT22;9788;48.194;16.318;2023-12-07T01:43:06;2.30;99.90
19307;DHT22;9788;48.194;16.318;2023-12-07T01:45:35;2.30;99.90
19307;DHT22;9788;48.194;16.318;2023-12-07T01:48:04;2.20;99.90
19307;DHT22;9788;48.194;16.318;2023-12-07T01:50:33;2.20;99.90
19307;DHT22;9788;48.194;16.318;2023-12-07T01:53:02;2.20;99.90
19307;DHT22;9788;48.194;16.318;2023-12-07T01:55:35;2.20;99.90
19307;DHT22;9788;48.194;16.318;2023-12-07T01:58:04;2.10;99.90
19307;DHT22;9788;48.194;16.318;2023-12-07T02:00:35;2.10;99.90
19307;DHT22;9788;48.194;16.318;2023-12-07T02:03:04;2.10;99.90
19307;DHT22;9788;48.194;16.318;2023-12-07T02:05:33;2.10;99.90
19307;DHT22;9788;48.194;16.318;2023-12-07T02:08:02;2.10;99.90
19307;DHT22;9788;48.194;16.318;2023-12-07T02:10:30;2.10;99.90
19307;DHT22;9788;48.194;16.318;2023-12-07T02:12:58;2.10;99.90
19307;DHT22;9788;48.194;16.318;2023-12-07T02:15:26;2.00;99.90
19307;DHT22;9788;48.194;16.318;2023-12-07T02:18:03;2.10;99.90
19307;DHT22;9788;48.194;16.318;2023-12-07T02:20:39;2.10;99.90
19307;DHT22;9788;48.194;16.318;2023-12-07T02:23:14;2.10;99.90
19307;DHT22;9788;48.194;16.318;2023-12-07T02:26:19;2.00;99.90
19307;DHT22;9788;48.194;16.318;2023-12-07T02:28:49;2.00;99.90
19307;DHT22;9788;48.194;16.318;2023-12-07T02:31:19;2.00;99.90
19307;DHT22;9788;48.194;16.318;2023-12-07T02:33:47;2.00;99.90
19307;DHT22;9788;48.194;16.318;2023-12-07T02:36:20;2.00;99.90
19307;DHT22;9788;48.194;16.318;2023-12-07T02:38:51;1.90;99.90
19307;DHT22;9788;48.194;16.318;2023-12-07T02:41:20;1.90;99.90
19307;DHT22;9788;48.194;16.318;2023-12-07T02:43:50;2.00;99.90
19307;DHT22;9788;48.194;16.318;2023-12-07T02:46:18;2.00;99.90
19307;DHT22;9788;48.194;16.318;2023-12-07T02:48:46;2.00;99.90
19307;DHT22;9788;48.194;16.318;2023-12-07T02:51:15;1.90;99.90
19307;DHT22;9788;48.194;16.318;2023-12-07T02:53:43;1.90;99.90
19307;DHT22;9788;48.194;16.318;2023-12-07T02:56:11;1.90;99.90
19307;DHT22;9788;48.194;16.318;2023-12-07T02:58:40;1.90;99.90
19307;DHT22;9788;48.194;16.318;2023-12-07T03:01:09;1.90;99.90
19307;DHT22;9788;48.194;16.318;2023-12-07T03:03:37;1.90;99.90
19307;DHT22;9788;48.194;16.318;2023-12-07T03:06:07;1.90;99.90
19307;DHT22;9788;48.194;16.318;2023-12-07T03:08:36;2.00;99.90
19307;DHT22;9788;48.194;16.318;2023-12-07T03:11:05;1.90;99.90
19307;DHT22;9788;48.194;16.318;2023-12-07T03:13:33;1.90;99.90
19307;DHT22;9788;48.194;16.318;2023-12-07T03:16:08;1.90;99.90
19307;DHT22;9788;48.194;16.318;2023-12-07T03:18:37;1.90;99.90
19307;DHT22;9788;48.194;16.318;2023-12-07T03:21:05;1.90;99.90
19307;DHT22;9788;48.194;16.318;2023-12-07T03:23:34;2.00;99.90
19307;DHT22;9788;48.194;16.318;2023-12-07T03:26:02;2.00;99.90
19307;DHT22;9788;48.194;16.318;2023-12-07T03:28:30;2.00;99.90
19307;DHT22;9788;48.194;16.318;2023-12-07T03:30:58;2.00;99.90
19307;DHT22;9788;48.194;16.318;2023-12-07T03:33:29;2.00;99.90
19307;DHT22;9788;48.194;16.318;2023-12-07T03:35:57;2.00;99.90
19307;DHT22;9788;48.194;16.318;2023-12-07T03:38:25;2.00;99.90
19307;DHT22;9788;48.194;16.318;2023-12-07T03:40:53;2.10;99.90
19307;DHT22;9788;48.194;16.318;2023-12-07T03:43:22;2.10;99.90
19307;DHT22;9788;48.194;16.318;2023-12-07T03:45:50;2.10;99.90
19307;DHT22;9788;48.194;16.318;2023-12-07T03:48:19;2.00;99.90
19307;DHT22;9788;48.194;16.318;2023-12-07T03:50:49;2.00;99.90
19307;DHT22;9788;48.194;16.318;2023-12-07T03:53:17;2.10;99.90
19307;DHT22;9788;48.194;16.318;2023-12-07T03:55:45;2.10;99.90
19307;DHT22;9788;48.194;16.318;2023-12-07T03:58:13;2.10;99.90
19307;DHT22;9788;48.194;16.318;2023-12-07T04:00:41;2.10;99.90
19307;DHT22;9788;48.194;16.318;2023-12-07T04:03:09;2.10;99.90
19307;DHT22;9788;48.194;16.318;2023-12-07T04:05:38;2.10;99.90
19307;DHT22;9788;48.194;16.318;2023-12-07T04:08:07;2.10;99.90
19307;DHT22;9788;48.194;16.318;2023-12-07T04:10:34;2.10;99.90
19307;DHT22;9788;48.194;16.318;2023-12-07T04:13:02;2.10;99.90
19307;DHT22;9788;48.194;16.318;2023-12-07T04:15:31;2.10;99.90
19307;DHT22;9788;48.194;16.318;2023-12-07T04:17:59;2.10;99.90
19307;DHT22;9788;48.194;16.318;2023-12-07T04:20:27;2.10;99.90
19307;DHT22;9788;48.194;16.318;2023-12-07T04:22:55;2.10;99.90
19307;DHT22;9788;48.194;16.318;2023-12-07T04:25:26;2.20;99.90
19307;DHT22;9788;48.194;16.318;2023-12-07T04:27:54;2.20;99.90
19307;DHT22;9788;48.194;16.318;2023-12-07T04:30:22;2.20;99.90
19307;DHT22;9788;48.194;16.318;2023-12-07T04:32:50;2.20;99.90
19307;DHT22;9788;48.194;16.318;2023-12-07T04:35:19;2.20;99.90
19307;DHT22;9788;48.194;16.318;2023-12-07T04:37:47;2.10;99.90
19307;DHT22;9788;48.194;16.318;2023-12-07T04:40:15;2.10;99.90
19307;DHT22;9788;48.194;16.318;2023-12-07T04:42:45;2.20;99.90
19307;DHT22;9788;48.194;16.318;2023-12-07T04:45:13;2.20;99.90
19307;DHT22;9788;48.194;16.318;2023-12-07T04:47:41;2.20;99.90
19307;DHT22;9788;48.194;16.318;2023-12-07T04:50:10;2.20;99.90
19307;DHT22;9788;48.194;16.318;2023-12-07T04:52:38;2.20;99.90
19307;DHT22;9788;48.194;16.318;2023-12-07T04:55:07;2.20;99.90
19307;DHT22;9788;48.194;16.318;2023-12-07T04:57:35;2.20;99.90
19307;DHT22;9788;48.194;16.318;2023-12-07T05:00:06;2.20;99.90
19307;DHT22;9788;48.194;16.318;2023-12-07T05:02:37;2.20;99.90
19307;DHT22;9788;48.194;16.318;2023-12-07T05:05:06;2.10;99.90
19307;DHT22;9788;48.194;16.318;2023-12-07T05:07:39;2.20;99.90
19307;DHT22;9788;48.194;16.318;2023-12-07T05:10:08;2.20;99.90
19307;DHT22;9788;48.194;16.318;2023-12-07T05:12:37;2.20;99.90
19307;DHT22;9788;48.194;16.318;2023-12-07T05:15:07;2.10;99.90
19307;DHT22;9788;48.194;16.318;2023-12-07T05:17:36;2.10;99.90
19307;DHT22;9788;48.194;16.318;2023-12-07T05:20:05;2.10;99.90
19307;DHT22;9788;48.194;16.318;2023-12-07T05:22:34;2.10;99.90
19307;DHT22;9788;48.194;16.318;2023-12-07T05:25:02;2.10;99.90
19307;DHT22;9788;48.194;16.318;2023-12-07T05:27:31;2.10;99.90
19307;DHT22;9788;48.194;16.318;2023-12-07T05:29:59;2.20;99.90
19307;DHT22;9788;48.194;16.318;2023-12-07T05:32:29;2.10;99.90
19307;DHT22;9788;48.194;16.318;2023-12-07T05:34:58;2.10;99.90
19307;DHT22;9788;48.194;16.318;2023-12-07T05:37:26;2.20;99.90
19307;DHT22;9788;48.194;16.318;2023-12-07T05:39:56;2.10;99.90
19307;DHT22;9788;48.194;16.318;2023-12-07T05:42:25;2.10;99.90
19307;DHT22;9788;48.194;16.318;2023-12-07T05:44:54;2.10;99.90
19307;DHT22;9788;48.194;16.318;2023-12-07T05:47:22;2.10;99.90
19307;DHT22;9788;48.194;16.318;2023-12-07T05:49:52;2.10;99.90
19307;DHT22;9788;48.194;16.318;2023-12-07T05:52:20;2.10;99.90
19307;DHT22;9788;48.194;16.318;2023-12-07T05:54:49;2.10;99.90
19307;DHT22;9788;48.194;16.318;2023-12-07T05:57:17;2.20;99.90
19307;DHT22;9788;48.194;16.318;2023-12-07T05:59:46;2.20;99.90
19307;DHT22;9788;48.194;16.318;2023-12-07T06:02:14;2.20;99.90
19307;DHT22;9788;48.194;16.318;2023-12-07T06:04:42;2.10;99.90
19307;DHT22;9788;48.194;16.318;2023-12-07T06:07:12;2.10;99.90
19307;DHT22;9788;48.194;16.318;2023-12-07T06:09:40;2.10;99.90
19307;DHT22;9788;48.194;16.318;2023-12-07T06:12:09;2.20;99.90
19307;DHT22;9788;48.194;16.318;2023-12-07T06:14:37;2.20;99.90
19307;DHT22;9788;48.194;16.318;2023-12-07T06:17:05;2.20;99.90
19307;DHT22;9788;48.194;16.318;2023-12-07T06:19:35;2.20;99.90
19307;DHT22;9788;48.194;16.318;2023-12-07T06:22:03;2.20;99.90
19307;DHT22;9788;48.194;16.318;2023-12-07T06:24:34;2.30;99.90
19307;DHT22;9788;48.194;16.318;2023-12-07T06:27:02;2.30;99.90
19307;DHT22;9788;48.194;16.318;2023-12-07T06:29:31;2.30;99.90
19307;DHT22;9788;48.194;16.318;2023-12-07T06:32:07;2.30;99.90
19307;DHT22;9788;48.194;16.318;2023-12-07T06:34:41;2.30;99.90
19307;DHT22;9788;48.194;16.318;2023-12-07T06:37:12;2.30;99.90
19307;DHT22;9788;48.194;16.318;2023-12-07T06:39:42;2.30;99.90
19307;DHT22;9788;48.194;16.318;2023-12-07T06:42:12;2.30;99.90
19307;DHT22;9788;48.194;16.318;2023-12-07T06:44:43;2.30;99.90
19307;DHT22;9788;48.194;16.318;2023-12-07T06:47:11;2.30;99.90
19307;DHT22;9788;48.194;16.318;2023-12-07T06:49:42;2.30;99.90
19307;DHT22;9788;48.194;16.318;2023-12-07T06:52:18;2.30;99.90
19307;DHT22;9788;48.194;16.318;2023-12-07T06:54:51;2.30;99.90
19307;DHT22;9788;48.194;16.318;2023-12-07T06:57:46;2.30;99.90
19307;DHT22;9788;48.194;16.318;2023-12-07T07:00:16;2.30;99.90
19307;DHT22;9788;48.194;16.318;2023-12-07T07:02:47;2.30;99.90
19307;DHT22;9788;48.194;16.318;2023-12-07T07:05:18;2.30;99.90
19307;DHT22;9788;48.194;16.318;2023-12-07T07:07:47;2.30;99.90
19307;DHT22;9788;48.194;16.318;2023-12-07T07:10:16;2.30;99.90
19307;DHT22;9788;48.194;16.318;2023-12-07T07:12:44;2.30;99.90
19307;DHT22;9788;48.194;16.318;2023-12-07T07:15:12;2.30;99.90
19307;DHT22;9788;48.194;16.318;2023-12-07T07:17:40;2.40;99.90
19307;DHT22;9788;48.194;16.318;2023-12-07T07:20:09;2.40;99.90
19307;DHT22;9788;48.194;16.318;2023-12-07T07:22:37;2.40;99.90
19307;DHT22;9788;48.194;16.318;2023-12-07T07:25:06;2.50;99.90
19307;DHT22;9788;48.194;16.318;2023-12-07T07:27:36;2.50;99.90
19307;DHT22;9788;48.194;16.318;2023-12-07T07:30:06;2.50;99.90
19307;DHT22;9788;48.194;16.318;2023-12-07T07:32:36;2.50;99.90
19307;DHT22;9788;48.194;16.318;2023-12-07T07:35:05;2.50;99.90
19307;DHT22;9788;48.194;16.318;2023-12-07T07:37:33;2.50;99.90
19307;DHT22;9788;48.194;16.318;2023-12-07T07:40:02;2.50;99.90
19307;DHT22;9788;48.194;16.318;2023-12-07T07:42:37;2.50;99.90
19307;DHT22;9788;48.194;16.318;2023-12-07T07:45:07;2.60;99.90
19307;DHT22;9788;48.194;16.318;2023-12-07T07:47:35;2.60;99.90
19307;DHT22;9788;48.194;16.318;2023-12-07T07:50:04;2.60;99.90
19307;DHT22;9788;48.194;16.318;2023-12-07T07:52:33;2.70;99.90
19307;DHT22;9788;48.194;16.318;2023-12-07T07:55:05;2.70;99.90
19307;DHT22;9788;48.194;16.318;2023-12-07T07:57:34;2.80;99.90
19307;DHT22;9788;48.194;16.318;2023-12-07T08:00:05;2.80;99.90
19307;DHT22;9788;48.194;16.318;2023-12-07T08:02:35;2.90;99.90
19307;DHT22;9788;48.194;16.318;2023-12-07T08:05:04;2.90;99.90
19307;DHT22;9788;48.194;16.318;2023-12-07T08:07:32;2.90;99.90
19307;DHT22;9788;48.194;16.318;2023-12-07T08:10:02;3.00;99.90
19307;DHT22;9788;48.194;16.318;2023-12-07T08:12:31;3.10;99.90
19307;DHT22;9788;48.194;16.318;2023-12-07T08:14:59;3.10;99.90
19307;DHT22;9788;48.194;16.318;2023-12-07T08:17:29;3.20;99.90
19307;DHT22;9788;48.194;16.318;2023-12-07T08:19:57;3.30;99.90
19307;DHT22;9788;48.194;16.318;2023-12-07T08:22:26;3.30;99.90
19307;DHT22;9788;48.194;16.318;2023-12-07T08:24:55;3.30;99.90
19307;DHT22;9788;48.194;16.318;2023-12-07T08:27:37;3.30;99.90
19307;DHT22;9788;48.194;16.318;2023-12-07T08:30:06;3.30;99.90
19307;DHT22;9788;48.194;16.318;2023-12-07T08:32:37;3.40;99.90
19307;DHT22;9788;48.194;16.318;2023-12-07T08:35:07;3.40;99.90
19307;DHT22;9788;48.194;16.318;2023-12-07T08:37:37;3.50;99.90
19307;DHT22;9788;48.194;16.318;2023-12-07T08:40:06;3.60;99.90
19307;DHT22;9788;48.194;16.318;2023-12-07T08:42:38;3.70;99.90
19307;DHT22;9788;48.194;16.318;2023-12-07T08:45:07;3.70;99.90
19307;DHT22;9788;48.194;16.318;2023-12-07T08:47:38;3.80;99.90
19307;DHT22;9788;48.194;16.318;2023-12-07T08:50:07;3.80;99.90
19307;DHT22;9788;48.194;16.318;2023-12-07T08:52:36;3.80;99.90
19307;DHT22;9788;48.194;16.318;2023-12-07T08:55:13;3.80;99.90
19307;DHT22;9788;48.194;16.318;2023-12-07T08:57:44;3.90;99.90
19307;DHT22;9788;48.194;16.318;2023-12-07T09:00:14;4.10;99.90
19307;DHT22;9788;48.194;16.318;2023-12-07T09:02:44;4.10;99.90
19307;DHT22;9788;48.194;16.318;2023-12-07T09:05:14;4.30;99.90
19307;DHT22;9788;48.194;16.318;2023-12-07T09:07:42;4.50;99.90
19307;DHT22;9788;48.194;16.318;2023-12-07T09:10:11;4.50;99.90
19307;DHT22;9788;48.194;16.318;2023-12-07T09:12:41;4.40;99.90
19307;DHT22;9788;48.194;16.318;2023-12-07T09:15:10;4.50;99.90
19307;DHT22;9788;48.194;16.318;2023-12-07T09:17:40;4.40;99.90
19307;DHT22;9788;48.194;16.318;2023-12-07T09:20:16;4.50;99.90
19307;DHT22;9788;48.194;16.318;2023-12-07T09:22:45;4.60;99.90
19307;DHT22;9788;48.194;16.318;2023-12-07T09:25:15;4.60;99.90
19307;DHT22;9788;48.194;16.318;2023-12-07T09:27:45;4.80;99.90
19307;DHT22;9788;48.194;16.318;2023-12-07T09:30:14;4.80;99.90
19307;DHT22;9788;48.194;16.318;2023-12-07T09:32:43;4.80;99.90
19307;DHT22;9788;48.194;16.318;2023-12-07T09:35:12;4.90;99.90
19307;DHT22;9788;48.194;16.318;2023-12-07T09:37:44;5.00;99.90
19307;DHT22;9788;48.194;16.318;2023-12-07T09:40:16;5.20;99.90
19307;DHT22;9788;48.194;16.318;2023-12-07T09:42:46;5.00;99.90
19307;DHT22;9788;48.194;16.318;2023-12-07T09:45:15;5.00;99.90
19307;DHT22;9788;48.194;16.318;2023-12-07T09:47:47;5.20;99.90
19307;DHT22;9788;48.194;16.318;2023-12-07T09:50:17;5.30;99.90
19307;DHT22;9788;48.194;16.318;2023-12-07T09:52:52;5.40;99.90
19307;DHT22;9788;48.194;16.318;2023-12-07T09:55:34;5.50;99.90
19307;DHT22;9788;48.194;16.318;2023-12-07T09:58:04;5.60;99.90
19307;DHT22;9788;48.194;16.318;2023-12-07T10:00:35;5.70;99.90
19307;DHT22;9788;48.194;16.318;2023-12-07T10:03:05;5.80;99.90
19307;DHT22;9788;48.194;16.318;2023-12-07T10:05:54;5.90;99.90
19307;DHT22;9788;48.194;16.318;2023-12-07T10:08:36;5.90;99.90
19307;DHT22;9788;48.194;16.318;2023-12-07T10:11:06;5.80;99.90
19307;DHT22;9788;48.194;16.318;2023-12-07T10:13:36;5.90;99.90
19307;DHT22;9788;48.194;16.318;2023-12-07T10:16:09;5.90;99.90
19307;DHT22;9788;48.194;16.318;2023-12-07T10:18:39;6.00;99.90
19307;DHT22;9788;48.194;16.318;2023-12-07T10:21:11;6.10;99.90
19307;DHT22;9788;48.194;16.318;2023-12-07T10:23:43;6.00;99.90
19307;DHT22;9788;48.194;16.318;2023-12-07T10:26:16;6.20;99.90
19307;DHT22;9788;48.194;16.318;2023-12-07T10:28:48;6.30;99.90
19307;DHT22;9788;48.194;16.318;2023-12-07T10:31:21;6.40;99.90
19307;DHT22;9788;48.194;16.318;2023-12-07T10:33:53;6.40;99.90
19307;DHT22;9788;48.194;16.318;2023-12-07T10:36:21;6.40;99.90
19307;DHT22;9788;48.194;16.318;2023-12-07T10:38:52;6.60;99.90
19307;DHT22;9788;48.194;16.318;2023-12-07T10:41:21;6.60;99.90
19307;DHT22;9788;48.194;16.318;2023-12-07T10:43:52;6.60;99.90
19307;DHT22;9788;48.194;16.318;2023-12-07T10:46:21;6.80;99.90
19307;DHT22;9788;48.194;16.318;2023-12-07T10:48:54;7.00;99.90
19307;DHT22;9788;48.194;16.318;2023-12-07T10:51:33;7.40;99.90
19307;DHT22;9788;48.194;16.318;2023-12-07T10:54:04;7.60;99.90
19307;DHT22;9788;48.194;16.318;2023-12-07T10:56:39;8.20;99.90
19307;DHT22;9788;48.194;16.318;2023-12-07T10:59:09;7.70;99.90
19307;DHT22;9788;48.194;16.318;2023-12-07T11:01:47;7.80;99.90
19307;DHT22;9788;48.194;16.318;2023-12-07T11:04:17;7.60;99.90
19307;DHT22;9788;48.194;16.318;2023-12-07T11:06:49;7.50;99.90
19307;DHT22;9788;48.194;16.318;2023-12-07T11:09:23;7.80;99.90
19307;DHT22;9788;48.194;16.318;2023-12-07T11:11:59;8.10;99.90
19307;DHT22;9788;48.194;16.318;2023-12-07T11:14:28;8.00;99.90
19307;DHT22;9788;48.194;16.318;2023-12-07T11:16:57;7.70;99.90
19307;DHT22;9788;48.194;16.318;2023-12-07T11:19:45;7.50;99.90
19307;DHT22;9788;48.194;16.318;2023-12-07T11:22:15;7.00;99.90
19307;DHT22;9788;48.194;16.318;2023-12-07T11:24:54;6.60;99.90
19307;DHT22;9788;48.194;16.318;2023-12-07T11:27:29;6.70;99.90
19307;DHT22;9788;48.194;16.318;2023-12-07T11:29:58;7.10;99.90
19307;DHT22;9788;48.194;16.318;2023-12-07T11:32:28;7.10;99.90
19307;DHT22;9788;48.194;16.318;2023-12-07T11:35:02;7.00;99.90
19307;DHT22;9788;48.194;16.318;2023-12-07T11:40:37;6.50;99.90
19307;DHT22;9788;48.194;16.318;2023-12-07T11:43:16;6.80;99.90
19307;DHT22;9788;48.194;16.318;2023-12-07T11:45:47;7.00;99.90
19307;DHT22;9788;48.194;16.318;2023-12-07T11:48:17;7.20;99.90
19307;DHT22;9788;48.194;16.318;2023-12-07T11:50:55;7.10;99.90
19307;DHT22;9788;48.194;16.318;2023-12-07T11:53:24;7.10;99.90
19307;DHT22;9788;48.194;16.318;2023-12-07T11:55:54;7.00;99.90
19307;DHT22;9788;48.194;16.318;2023-12-07T11:58:24;6.80;99.90
19307;DHT22;9788;48.194;16.318;2023-12-07T12:00:53;6.50;99.90
19307;DHT22;9788;48.194;16.318;2023-12-07T12:03:23;6.50;99.90
19307;DHT22;9788;48.194;16.318;2023-12-07T12:05:54;6.10;99.90
19307;DHT22;9788;48.194;16.318;2023-12-07T12:08:24;6.00;99.90
19307;DHT22;9788;48.194;16.318;2023-12-07T12:10:54;5.70;99.90
19307;DHT22;9788;48.194;16.318;2023-12-07T12:13:30;5.90;99.90
19307;DHT22;9788;48.194;16.318;2023-12-07T12:15:58;6.00;99.90
19307;DHT22;9788;48.194;16.318;2023-12-07T12:18:33;6.10;99.90
19307;DHT22;9788;48.194;16.318;2023-12-07T12:21:03;5.90;99.90
19307;DHT22;9788;48.194;16.318;2023-12-07T12:23:31;5.90;99.90
19307;DHT22;9788;48.194;16.318;2023-12-07T12:26:04;5.70;99.90
19307;DHT22;9788;48.194;16.318;2023-12-07T12:28:40;5.70;99.90
19307;DHT22;9788;48.194;16.318;2023-12-07T12:31:10;5.50;99.90
19307;DHT22;9788;48.194;16.318;2023-12-07T12:33:40;5.50;99.90
19307;DHT22;9788;48.194;16.318;2023-12-07T12:36:09;5.40;99.90
19307;DHT22;9788;48.194;16.318;2023-12-07T12:38:40;5.20;99.90
19307;DHT22;9788;48.194;16.318;2023-12-07T12:41:12;5.00;99.90
19307;DHT22;9788;48.194;16.318;2023-12-07T12:43:40;5.10;99.90
19307;DHT22;9788;48.194;16.318;2023-12-07T12:46:10;5.10;99.90
19307;DHT22;9788;48.194;16.318;2023-12-07T12:48:53;5.10;99.90
19307;DHT22;9788;48.194;16.318;2023-12-07T12:51:25;5.10;99.90
19307;DHT22;9788;48.194;16.318;2023-12-07T12:54:00;5.10;99.90
19307;DHT22;9788;48.194;16.318;2023-12-07T12:56:30;5.10;99.90
19307;DHT22;9788;48.194;16.318;2023-12-07T12:58:59;5.10;99.90
19307;DHT22;9788;48.194;16.318;2023-12-07T13:01:33;5.10;99.90
19307;DHT22;9788;48.194;16.318;2023-12-07T13:04:04;5.10;99.90
19307;DHT22;9788;48.194;16.318;2023-12-07T13:06:33;5.00;99.90
19307;DHT22;9788;48.194;16.318;2023-12-07T13:09:09;5.00;99.90
19307;DHT22;9788;48.194;16.318;2023-12-07T13:11:38;5.00;99.90
19307;DHT22;9788;48.194;16.318;2023-12-07T13:14:07;5.00;99.90
19307;DHT22;9788;48.194;16.318;2023-12-07T13:16:38;4.90;99.90
19307;DHT22;9788;48.194;16.318;2023-12-07T13:19:07;4.90;99.90
19307;DHT22;9788;48.194;16.318;2023-12-07T13:21:37;5.00;99.90
19307;DHT22;9788;48.194;16.318;2023-12-07T13:24:10;4.90;99.90
19307;DHT22;9788;48.194;16.318;2023-12-07T13:26:41;4.90;99.90
19307;DHT22;9788;48.194;16.318;2023-12-07T13:29:12;4.90;99.90
19307;DHT22;9788;48.194;16.318;2023-12-07T13:31:57;4.90;99.90
19307;DHT22;9788;48.194;16.318;2023-12-07T13:34:28;5.00;99.90
19307;DHT22;9788;48.194;16.318;2023-12-07T13:36:56;5.00;99.90
19307;DHT22;9788;48.194;16.318;2023-12-07T13:39:25;5.00;99.90
19307;DHT22;9788;48.194;16.318;2023-12-07T13:41:59;5.00;99.90
19307;DHT22;9788;48.194;16.318;2023-12-07T13:44:31;4.90;99.90
19307;DHT22;9788;48.194;16.318;2023-12-07T13:47:03;4.80;99.90
19307;DHT22;9788;48.194;16.318;2023-12-07T13:49:32;4.90;99.90
19307;DHT22;9788;48.194;16.318;2023-12-07T13:52:04;4.90;99.90
19307;DHT22;9788;48.194;16.318;2023-12-07T13:54:38;4.80;99.90
19307;DHT22;9788;48.194;16.318;2023-12-07T13:57:21;4.70;99.90
19307;DHT22;9788;48.194;16.318;2023-12-07T13:59:53;4.60;99.90
19307;DHT22;9788;48.194;16.318;2023-12-07T14:02:24;4.60;99.90
19307;DHT22;9788;48.194;16.318;2023-12-07T14:04:53;4.50;99.90
19307;DHT22;9788;48.194;16.318;2023-12-07T14:07:23;4.40;99.90
19307;DHT22;9788;48.194;16.318;2023-12-07T14:09:52;4.20;99.90
19307;DHT22;9788;48.194;16.318;2023-12-07T14:12:26;4.10;99.90
19307;DHT22;9788;48.194;16.318;2023-12-07T14:14:57;4.00;99.90
19307;DHT22;9788;48.194;16.318;2023-12-07T14:17:25;3.90;99.90
19307;DHT22;9788;48.194;16.318;2023-12-07T14:20:13;3.80;99.90
19307;DHT22;9788;48.194;16.318;2023-12-07T14:23:01;3.70;99.90
19307;DHT22;9788;48.194;16.318;2023-12-07T14:25:31;3.60;99.90
19307;DHT22;9788;48.194;16.318;2023-12-07T14:28:04;3.50;99.90
19307;DHT22;9788;48.194;16.318;2023-12-07T14:30:35;3.50;99.90
19307;DHT22;9788;48.194;16.318;2023-12-07T14:33:03;3.30;99.90
19307;DHT22;9788;48.194;16.318;2023-12-07T14:35:31;3.20;99.90
19307;DHT22;9788;48.194;16.318;2023-12-07T14:38:02;3.20;99.90
19307;DHT22;9788;48.194;16.318;2023-12-07T14:40:31;3.10;99.90
19307;DHT22;9788;48.194;16.318;2023-12-07T14:43:07;3.10;99.90
19307;DHT22;9788;48.194;16.318;2023-12-07T14:45:36;3.00;99.90
19307;DHT22;9788;48.194;16.318;2023-12-07T14:48:05;3.00;99.90
19307;DHT22;9788;48.194;16.318;2023-12-07T14:50:33;2.90;99.90
19307;DHT22;9788;48.194;16.318;2023-12-07T14:53:04;2.80;99.90
19307;DHT22;9788;48.194;16.318;2023-12-07T14:55:33;2.80;99.90
19307;DHT22;9788;48.194;16.318;2023-12-07T14:58:10;2.80;99.90
19307;DHT22;9788;48.194;16.318;2023-12-07T15:00:42;2.80;99.90
19307;DHT22;9788;48.194;16.318;2023-12-07T15:03:11;2.80;99.90
19307;DHT22;9788;48.194;16.318;2023-12-07T15:05:40;2.80;99.90
19307;DHT22;9788;48.194;16.318;2023-12-07T15:08:09;2.80;99.90
19307;DHT22;9788;48.194;16.318;2023-12-07T15:10:37;2.70;99.90
19307;DHT22;9788;48.194;16.318;2023-12-07T15:13:05;2.70;99.90
19307;DHT22;9788;48.194;16.318;2023-12-07T15:15:36;2.70;99.90
19307;DHT22;9788;48.194;16.318;2023-12-07T15:18:05;2.70;99.90
19307;DHT22;9788;48.194;16.318;2023-12-07T15:20:34;2.70;99.90
19307;DHT22;9788;48.194;16.318;2023-12-07T15:23:03;2.70;99.90
19307;DHT22;9788;48.194;16.318;2023-12-07T15:25:36;2.60;99.90
19307;DHT22;9788;48.194;16.318;2023-12-07T15:28:05;2.70;99.90
19307;DHT22;9788;48.194;16.318;2023-12-07T15:30:34;2.70;99.90
19307;DHT22;9788;48.194;16.318;2023-12-07T15:33:04;2.70;99.90
19307;DHT22;9788;48.194;16.318;2023-12-07T15:35:33;2.80;99.90
19307;DHT22;9788;48.194;16.318;2023-12-07T15:38:01;2.70;99.90
19307;DHT22;9788;48.194;16.318;2023-12-07T15:40:31;2.70;99.90
19307;DHT22;9788;48.194;16.318;2023-12-07T15:42:59;2.70;99.90
19307;DHT22;9788;48.194;16.318;2023-12-07T15:45:27;2.70;99.90
19307;DHT22;9788;48.194;16.318;2023-12-07T15:47:56;2.70;99.90
19307;DHT22;9788;48.194;16.318;2023-12-07T15:50:26;2.60;99.90
19307;DHT22;9788;48.194;16.318;2023-12-07T15:52:54;2.60;99.90
19307;DHT22;9788;48.194;16.318;2023-12-07T15:55:24;2.60;99.90
19307;DHT22;9788;48.194;16.318;2023-12-07T15:57:53;2.50;99.90
19307;DHT22;9788;48.194;16.318;2023-12-07T16:00:28;2.50;99.90
19307;DHT22;9788;48.194;16.318;2023-12-07T16:02:57;2.60;99.90
19307;DHT22;9788;48.194;16.318;2023-12-07T16:05:27;2.50;99.90
19307;DHT22;9788;48.194;16.318;2023-12-07T16:07:57;2.50;99.90